createdAt,value
2019-02-23T00:01:00.954Z,68.26
2019-02-23T00:03:27.568Z,68.29
2019-02-23T00:05:54.162Z,68.43
2019-02-23T00:08:20.884Z,68.52
2019-02-23T00:10:47.477Z,68.63
2019-02-23T00:13:14.076Z,68.77
2019-02-23T00:15:40.693Z,68.89
2019-02-23T00:18:07.348Z,68.95
2019-02-23T00:20:34.038Z,68.89
2019-02-23T00:23:00.808Z,69.03
2019-02-23T00:25:27.412Z,69.14
2019-02-23T00:27:54.042Z,69.24
2019-02-23T00:30:20.645Z,69.35
2019-02-23T00:32:47.243Z,69.42
2019-02-23T00:35:13.892Z,69.61
2019-02-23T00:37:40.579Z,69.74
2019-02-23T00:40:07.193Z,69.87
2019-02-23T00:42:33.778Z,69.81
2019-02-23T00:45:00.385Z,69.90
2019-02-23T00:47:26.981Z,70.02
2019-02-23T00:49:53.583Z,70.23
2019-02-23T00:52:20.205Z,70.30
2019-02-23T00:54:46.805Z,70.44
2019-02-23T00:57:13.414Z,70.16
2019-02-23T00:59:40.066Z,69.93
2019-02-23T01:02:06.731Z,69.33
2019-02-23T01:04:33.422Z,69.00
2019-02-23T01:07:00.053Z,68.38
2019-02-23T01:09:26.642Z,67.93
2019-02-23T01:11:53.603Z,67.51
2019-02-23T01:14:20.205Z,67.29
2019-02-23T01:16:46.819Z,67.07
2019-02-23T01:19:13.427Z,66.83
2019-02-23T01:21:40.034Z,66.67
2019-02-23T01:24:06.636Z,66.44
2019-02-23T01:26:33.239Z,66.45
2019-02-23T01:28:59.840Z,66.04
2019-02-23T01:31:26.451Z,65.60
2019-02-23T01:33:53.081Z,65.30
2019-02-23T01:36:19.666Z,64.77
2019-02-23T01:38:46.275Z,64.51
2019-02-23T01:41:12.887Z,63.85
2019-02-23T01:43:39.573Z,63.72
2019-02-23T01:46:06.185Z,63.60
2019-02-23T01:48:32.792Z,63.15
2019-02-23T01:50:59.376Z,63.13
2019-02-23T01:53:25.957Z,62.49
2019-02-23T01:55:52.574Z,62.28
2019-02-23T01:58:19.170Z,62.02
2019-02-23T02:00:45.750Z,61.67
2019-02-23T02:03:12.337Z,61.01
2019-02-23T02:05:38.932Z,60.50
2019-02-23T02:08:05.532Z,60.43
2019-02-23T02:10:32.140Z,59.67
2019-02-23T02:12:58.844Z,59.60
2019-02-23T02:15:25.420Z,59.05
2019-02-23T02:17:52.014Z,58.76
2019-02-23T02:20:18.612Z,58.86
2019-02-23T02:22:45.202Z,58.41
2019-02-23T02:25:11.814Z,58.01
2019-02-23T02:27:38.417Z,58.48
2019-02-23T02:30:05.173Z,58.48
2019-02-23T02:32:31.774Z,58.13
2019-02-23T02:34:58.378Z,58.08
2019-02-23T02:37:24.960Z,58.29
2019-02-23T02:39:51.557Z,58.00
2019-02-23T02:42:18.162Z,58.26
2019-02-23T02:44:44.786Z,58.32
2019-02-23T02:47:11.380Z,58.26
2019-02-23T02:49:38.063Z,58.39
2019-02-23T02:52:04.742Z,58.54
2019-02-23T02:54:31.467Z,58.54
2019-02-23T02:56:58.188Z,58.81
2019-02-23T02:59:24.786Z,58.77
2019-02-23T03:01:51.396Z,58.89
2019-02-23T03:04:18.005Z,58.25
2019-02-23T03:06:44.606Z,57.87
2019-02-23T03:09:11.715Z,57.66
2019-02-23T03:11:38.309Z,57.73
2019-02-23T03:14:04.896Z,57.85
2019-02-23T03:16:31.592Z,57.78
2019-02-23T03:18:58.222Z,57.98
2019-02-23T03:21:24.813Z,58.42
2019-02-23T03:23:51.415Z,58.96
2019-02-23T03:26:18.023Z,58.99
2019-02-23T03:28:44.616Z,58.98
2019-02-23T03:31:11.220Z,59.11
2019-02-23T03:33:37.821Z,59.62
2019-02-23T03:36:04.512Z,59.69
2019-02-23T03:38:31.135Z,59.72
2019-02-23T03:40:57.737Z,59.59
2019-02-23T03:43:24.342Z,59.81
2019-02-23T03:45:50.939Z,60.14
2019-02-23T03:48:17.533Z,60.31
2019-02-23T03:50:49.167Z,60.70
2019-02-23T03:53:12.628Z,60.80
2019-02-23T03:55:39.244Z,61.11
2019-02-23T03:58:05.840Z,61.21
2019-02-23T04:00:32.535Z,61.41
2019-02-23T04:02:59.132Z,61.63
2019-02-23T04:05:25.833Z,61.83
2019-02-23T04:07:52.433Z,62.02
2019-02-23T04:10:19.029Z,61.89
2019-02-23T04:12:45.727Z,61.98
2019-02-23T04:15:12.425Z,62.04
2019-02-23T04:17:39.004Z,62.04
2019-02-23T04:20:05.624Z,62.11
2019-02-23T04:22:32.231Z,61.95
2019-02-23T04:24:58.922Z,61.75
2019-02-23T04:27:25.507Z,61.90
2019-02-23T04:29:52.152Z,62.14
2019-02-23T04:32:18.770Z,62.29
2019-02-23T04:34:45.457Z,62.25
2019-02-23T04:37:12.053Z,61.95
2019-02-23T04:39:38.685Z,62.10
2019-02-23T04:42:05.255Z,61.90
2019-02-23T04:44:31.834Z,62.02
2019-02-23T04:46:58.416Z,61.80
2019-02-23T04:49:25.951Z,61.26
2019-02-23T04:51:52.906Z,61.40
2019-02-23T04:54:19.502Z,61.40
2019-02-23T04:56:46.134Z,61.33
2019-02-23T04:59:12.752Z,61.52
2019-02-23T05:01:39.349Z,61.59
2019-02-23T05:04:05.950Z,61.28
2019-02-23T05:06:32.584Z,61.03
2019-02-23T05:08:59.268Z,61.05
2019-02-23T05:11:25.881Z,61.16
2019-02-23T05:13:52.573Z,60.75
2019-02-23T05:16:19.261Z,60.73
2019-02-23T05:18:45.844Z,60.47
2019-02-23T05:21:12.849Z,60.64
2019-02-23T05:23:39.540Z,60.38
2019-02-23T05:26:06.151Z,60.21
2019-02-23T05:28:32.860Z,60.21
2019-02-23T05:30:59.447Z,60.30
2019-02-23T05:33:26.058Z,59.94
2019-02-23T05:35:52.662Z,59.14
2019-02-23T05:38:19.271Z,59.36
2019-02-23T05:40:45.999Z,59.60
2019-02-23T05:43:12.713Z,59.70
2019-02-23T05:45:39.406Z,59.51
2019-02-23T05:48:06.026Z,59.65
2019-02-23T05:50:32.888Z,59.45
2019-02-23T05:52:59.497Z,59.33
2019-02-23T05:55:26.188Z,59.21
2019-02-23T05:57:52.804Z,59.33
2019-02-23T06:00:19.415Z,59.42
2019-02-23T06:02:46.125Z,59.43
2019-02-23T06:05:12.747Z,59.59
2019-02-23T06:07:39.362Z,59.70
2019-02-23T06:10:06.877Z,60.08
2019-02-23T06:12:33.567Z,60.15
2019-02-23T06:15:00.408Z,60.38
2019-02-23T06:17:27.075Z,60.54
2019-02-23T06:19:53.773Z,60.16
2019-02-23T06:22:20.425Z,60.06
2019-02-23T06:24:47.033Z,60.13
2019-02-23T06:27:13.759Z,60.28
2019-02-23T06:29:40.455Z,60.31
2019-02-23T06:32:07.158Z,60.38
2019-02-23T06:34:33.891Z,60.38
2019-02-23T06:37:00.590Z,60.15
2019-02-23T06:39:27.301Z,60.11
2019-02-23T06:41:53.903Z,60.06
2019-02-23T06:44:20.516Z,60.37
2019-02-23T06:46:47.223Z,60.38
2019-02-23T06:49:13.881Z,65.15
2019-02-23T06:51:40.585Z,64.64
2019-02-23T06:54:07.250Z,63.91
2019-02-23T06:56:33.946Z,61.50
2019-02-23T06:59:00.659Z,58.18
2019-02-23T07:01:27.252Z,59.79
2019-02-23T07:03:53.878Z,59.23
2019-02-23T07:06:20.612Z,62.55
2019-02-23T07:08:47.356Z,62.62
2019-02-23T07:11:14.060Z,60.79
2019-02-23T07:13:40.752Z,60.62
2019-02-23T07:16:07.400Z,58.20
2019-02-23T07:18:34.014Z,56.07
2019-02-23T07:21:00.632Z,56.25
2019-02-23T07:23:27.388Z,56.59
2019-02-23T07:25:54.132Z,56.76
2019-02-23T07:28:20.892Z,57.68
2019-02-23T07:30:47.547Z,58.29
2019-02-23T07:33:14.270Z,58.87
2019-02-23T07:35:40.984Z,59.15
2019-02-23T07:38:07.696Z,59.48
2019-02-23T07:40:34.316Z,59.63
2019-02-23T07:43:00.973Z,59.80
2019-02-23T07:45:27.607Z,60.12
2019-02-23T07:47:54.223Z,60.07
2019-02-23T07:50:20.823Z,60.31
2019-02-23T07:52:47.441Z,60.28
2019-02-23T07:55:19.854Z,60.35
2019-02-23T07:57:46.804Z,60.48
2019-02-23T08:00:13.539Z,60.64
2019-02-23T08:02:40.292Z,60.48
2019-02-23T08:05:07.323Z,60.57
2019-02-23T08:07:34.054Z,60.70
2019-02-23T08:10:00.801Z,60.75
2019-02-23T08:12:27.426Z,60.68
2019-02-23T08:14:55.178Z,60.68
2019-02-23T08:17:21.888Z,60.74
2019-02-23T08:19:48.510Z,60.56
2019-02-23T08:22:15.218Z,60.66
2019-02-23T08:24:41.926Z,60.64
2019-02-23T08:27:08.547Z,60.30
2019-02-23T08:29:35.161Z,60.03
2019-02-23T08:32:01.790Z,60.69
2019-02-23T08:34:28.499Z,60.29
2019-02-23T08:36:55.146Z,61.16
2019-02-23T08:39:21.827Z,59.57
2019-02-23T08:41:48.441Z,57.99
2019-02-23T08:44:15.060Z,57.84
2019-02-23T08:46:41.759Z,58.31
2019-02-23T08:49:08.382Z,58.71
2019-02-23T08:51:35.090Z,58.24
2019-02-23T08:54:01.698Z,58.18
2019-02-23T08:56:30.859Z,57.51
2019-02-23T08:58:56.932Z,56.94
2019-02-23T09:01:23.545Z,57.43
2019-02-23T09:03:50.532Z,57.47
2019-02-23T09:06:17.155Z,56.88
2019-02-23T09:08:43.807Z,56.72
2019-02-23T09:11:10.437Z,56.86
2019-02-23T09:13:37.084Z,56.66
2019-02-23T09:16:03.709Z,56.88
2019-02-23T09:18:30.425Z,56.89
2019-02-23T09:20:56.951Z,56.28
2019-02-23T09:23:23.672Z,55.45
2019-02-23T09:25:50.277Z,55.42
2019-02-23T09:28:17.059Z,54.26
2019-02-23T09:30:43.688Z,53.80
2019-02-23T09:33:10.393Z,54.14
2019-02-23T09:35:37.029Z,54.26
2019-02-23T09:38:03.955Z,53.27
2019-02-23T09:40:30.568Z,53.00
2019-02-23T09:42:57.165Z,51.90
2019-02-23T09:45:23.794Z,51.52
2019-02-23T09:47:50.391Z,50.36
2019-02-23T09:50:17.021Z,50.72
2019-02-23T09:52:43.739Z,50.19
2019-02-23T09:55:10.975Z,49.60
2019-02-23T09:57:37.839Z,49.61
2019-02-23T10:00:04.907Z,49.37
2019-02-23T10:02:31.614Z,49.92
2019-02-23T10:04:58.316Z,50.11
2019-02-23T10:07:24.941Z,49.91
2019-02-23T10:09:51.566Z,48.66
2019-02-23T10:12:18.312Z,47.77
2019-02-23T10:14:45.041Z,47.41
2019-02-23T10:17:11.781Z,46.83
2019-02-23T10:19:38.392Z,47.21
2019-02-23T10:22:05.106Z,46.74
2019-02-23T10:24:31.717Z,46.35
2019-02-23T10:26:58.413Z,45.99
2019-02-23T10:29:25.016Z,46.18
2019-02-23T10:31:51.641Z,45.81
2019-02-23T10:34:18.365Z,45.54
2019-02-23T10:36:44.972Z,44.50
2019-02-23T10:39:11.725Z,43.94
2019-02-23T10:41:38.362Z,43.52
2019-02-23T10:44:05.115Z,43.69
2019-02-23T10:46:31.831Z,43.57
2019-02-23T10:48:58.509Z,43.14
2019-02-23T10:51:25.109Z,43.09
2019-02-23T10:53:51.723Z,44.06
2019-02-23T10:56:47.478Z,45.34
2019-02-23T10:59:14.170Z,45.73
2019-02-23T11:01:40.769Z,46.12
2019-02-23T11:04:07.395Z,45.62
2019-02-23T11:06:34.001Z,44.92
2019-02-23T11:09:00.682Z,44.03
2019-02-23T11:11:27.313Z,44.85
2019-02-23T11:13:53.919Z,44.81
2019-02-23T11:16:20.547Z,44.93
2019-02-23T11:18:47.253Z,45.28
2019-02-23T11:21:13.881Z,45.31
2019-02-23T11:23:44.187Z,44.21
2019-02-23T11:26:09.121Z,43.64
2019-02-23T11:28:35.748Z,43.16
2019-02-23T11:31:02.379Z,43.37
2019-02-23T11:33:28.989Z,42.68
2019-02-23T11:35:55.592Z,41.41
2019-02-23T11:38:22.195Z,40.39
2019-02-23T11:40:48.796Z,40.06
2019-02-23T11:43:15.431Z,39.05
2019-02-23T11:45:42.045Z,38.16
2019-02-23T11:48:08.663Z,38.35
2019-02-23T11:50:35.293Z,37.91
2019-02-23T11:53:01.992Z,38.05
2019-02-23T11:55:28.597Z,36.85
2019-02-23T11:57:55.187Z,36.80
2019-02-23T12:00:21.806Z,36.00
2019-02-23T12:02:52.480Z,36.24
2019-02-23T12:05:16.983Z,36.12
2019-02-23T12:07:43.690Z,36.06
2019-02-23T12:10:10.609Z,35.74
2019-02-23T12:12:37.204Z,34.81
2019-02-23T12:15:04.105Z,35.47
2019-02-23T12:17:30.704Z,34.52
2019-02-23T12:19:57.340Z,34.60
2019-02-23T12:22:23.935Z,33.54
2019-02-23T12:24:50.557Z,34.41
2019-02-23T12:27:17.154Z,33.44
2019-02-23T12:29:43.799Z,32.85
2019-02-23T12:32:10.396Z,33.36
2019-02-23T12:34:37.007Z,32.16
2019-02-23T12:37:03.677Z,30.83
2019-02-23T12:39:30.299Z,31.92
2019-02-23T12:41:57.020Z,31.11
2019-02-23T12:44:23.729Z,31.90
2019-02-23T12:46:50.319Z,31.95
2019-02-23T12:49:16.830Z,37.67
2019-02-23T12:51:43.521Z,33.13
2019-02-23T12:54:16.853Z,33.96
2019-02-23T12:56:45.011Z,34.44
2019-02-23T12:59:11.641Z,33.22
2019-02-23T13:01:38.271Z,30.17
2019-02-23T13:04:04.996Z,31.02
2019-02-23T13:06:31.713Z,30.15
2019-02-23T13:09:16.473Z,29.96
2019-02-23T13:11:48.306Z,31.10
2019-02-23T13:14:46.601Z,32.73
2019-02-23T13:17:44.913Z,31.98
2019-02-23T13:20:46.500Z,32.00
2019-02-23T13:23:32.621Z,29.82
2019-02-23T13:26:21.534Z,30.67
2019-02-23T13:29:02.399Z,32.05
2019-02-23T13:31:47.107Z,32.07
2019-02-23T13:34:42.138Z,31.29
2019-02-23T13:37:28.290Z,31.06
2019-02-23T13:40:17.290Z,31.42
2019-02-23T13:43:12.885Z,32.22
2019-02-23T13:45:59.060Z,32.40
2019-02-23T13:48:36.397Z,32.03
2019-02-23T13:51:25.806Z,32.41
2019-02-23T13:54:15.024Z,33.05
2019-02-23T13:56:44.772Z,32.36
2019-02-23T13:59:36.991Z,32.57
2019-02-23T14:02:16.201Z,32.80
2019-02-23T14:04:58.154Z,32.22
2019-02-23T14:07:47.041Z,32.60
2019-02-23T14:10:35.941Z,32.64
2019-02-23T14:13:28.270Z,33.07
2019-02-23T14:16:08.472Z,32.74
2019-02-23T14:18:44.780Z,31.77
2019-02-23T14:21:29.516Z,31.41
2019-02-23T14:24:14.342Z,31.91
2019-02-23T14:27:00.608Z,31.82
2019-02-23T14:29:46.871Z,31.19
2019-02-23T14:32:33.035Z,31.25
2019-02-23T14:35:28.602Z,31.12
2019-02-23T14:38:14.846Z,31.18
2019-02-23T14:41:10.142Z,30.43
2019-02-23T14:43:49.994Z,30.84
2019-02-23T14:46:35.205Z,30.27
2019-02-23T14:49:11.698Z,29.51
2019-02-23T14:51:47.721Z,29.92
2019-02-23T14:54:16.887Z,30.27
2019-02-23T14:57:21.525Z,29.94
2019-02-23T14:59:57.049Z,30.52
2019-02-23T15:02:58.347Z,30.20
2019-02-23T15:05:59.717Z,29.62
2019-02-23T15:08:49.081Z,29.69
2019-02-23T15:11:35.344Z,29.63
2019-02-23T15:14:21.694Z,28.92
2019-02-23T15:17:04.286Z,29.18
2019-02-23T15:19:59.726Z,29.09
2019-02-23T15:22:52.181Z,29.39
2019-02-23T15:25:34.065Z,29.57
2019-02-23T15:28:30.476Z,28.83
2019-02-23T15:30:57.697Z,28.20
2019-02-23T15:33:53.200Z,29.14
2019-02-23T15:36:45.589Z,37.56
2019-02-23T15:39:47.181Z,34.14
2019-02-23T15:42:36.545Z,32.44
2019-02-23T15:45:25.857Z,32.94
2019-02-23T15:48:14.925Z,31.34
2019-02-23T15:50:41.770Z,30.06
2019-02-23T15:53:08.629Z,30.58
2019-02-23T15:55:36.605Z,32.00
2019-02-23T15:58:03.376Z,32.75
2019-02-23T16:00:30.145Z,34.06
2019-02-23T16:02:56.810Z,32.00
2019-02-23T16:05:23.575Z,33.45
2019-02-23T16:07:50.329Z,32.27
2019-02-23T16:10:17.917Z,31.92
2019-02-23T16:12:47.593Z,32.26
2019-02-23T16:15:14.317Z,32.32
2019-02-23T16:17:41.009Z,32.82
2019-02-23T16:20:07.766Z,33.29
2019-02-23T16:22:34.524Z,33.98
2019-02-23T16:25:01.299Z,34.44
2019-02-23T16:27:28.062Z,34.69
2019-02-23T16:29:54.836Z,35.02
2019-02-23T16:32:21.619Z,35.46
2019-02-23T16:34:48.388Z,35.35
2019-02-23T16:37:15.140Z,36.10
2019-02-23T16:39:44.875Z,35.88
2019-02-23T16:42:11.676Z,36.09
2019-02-23T16:44:38.467Z,35.84
2019-02-23T16:47:05.250Z,36.23
2019-02-23T16:49:32.001Z,36.46
2019-02-23T16:51:58.823Z,36.59
2019-02-23T16:54:26.567Z,36.63
2019-02-23T16:56:53.352Z,36.74
2019-02-23T16:59:21.388Z,36.89
2019-02-23T17:01:48.172Z,37.01
2019-02-23T17:04:14.920Z,37.19
2019-02-23T17:06:42.072Z,37.18
2019-02-23T17:09:08.797Z,37.25
2019-02-23T17:11:35.471Z,36.83
2019-02-23T17:14:02.227Z,37.12
2019-02-23T17:16:28.897Z,36.96
2019-02-23T17:18:55.698Z,36.99
2019-02-23T17:21:22.440Z,37.08
2019-02-23T17:23:49.174Z,37.09
2019-02-23T17:26:15.944Z,37.44
2019-02-23T17:28:42.682Z,37.45
2019-02-23T17:31:09.446Z,37.45
2019-02-23T17:33:36.218Z,37.62
2019-02-23T17:36:02.941Z,37.70
2019-02-23T17:38:29.675Z,37.59
2019-02-23T17:40:56.423Z,37.18
2019-02-23T17:43:23.249Z,42.88
2019-02-23T17:45:49.936Z,44.09
2019-02-23T17:48:16.677Z,41.56
2019-02-23T17:50:43.439Z,42.80
2019-02-23T17:53:10.193Z,40.14
2019-02-23T17:55:36.941Z,39.20
2019-02-23T17:58:03.930Z,39.03
2019-02-23T18:00:30.693Z,38.69
2019-02-23T18:02:58.403Z,37.38
2019-02-23T18:05:25.534Z,37.49
2019-02-23T18:07:52.534Z,36.88
2019-02-23T18:10:19.297Z,36.20
2019-02-23T18:12:46.060Z,36.03
2019-02-23T18:15:12.841Z,36.42
2019-02-23T18:17:40.493Z,36.77
2019-02-23T18:20:07.934Z,37.43
2019-02-23T18:22:34.666Z,37.91
2019-02-23T18:25:01.326Z,38.29
2019-02-23T18:27:28.091Z,38.66
2019-02-23T18:29:54.862Z,38.98
2019-02-23T18:32:21.623Z,39.34
2019-02-23T18:34:48.393Z,39.19
2019-02-23T18:37:15.226Z,39.49
2019-02-23T18:39:42.007Z,39.51
2019-02-23T18:42:08.758Z,39.78
2019-02-23T18:44:35.546Z,40.11
2019-02-23T18:47:02.297Z,40.22
2019-02-23T18:49:28.984Z,40.85
2019-02-23T18:51:56.146Z,41.28
2019-02-23T18:54:22.873Z,41.31
2019-02-23T18:56:49.701Z,41.62
2019-02-23T18:59:16.784Z,41.72
2019-02-23T19:01:43.471Z,41.97
2019-02-23T19:04:10.213Z,42.20
2019-02-23T19:06:37.003Z,42.18
2019-02-23T19:09:04.437Z,42.73
2019-02-23T19:11:31.244Z,43.01
2019-02-23T19:13:57.981Z,43.03
2019-02-23T19:16:24.679Z,42.82
2019-02-23T19:18:53.401Z,43.25
2019-02-23T19:21:20.167Z,43.64
2019-02-23T19:23:46.836Z,43.56
2019-02-23T19:26:13.971Z,43.97
2019-02-23T19:28:43.282Z,44.00
2019-02-23T19:31:09.373Z,44.09
2019-02-23T19:33:37.985Z,44.41
2019-02-23T19:36:06.979Z,44.43
2019-02-23T19:38:34.167Z,44.88
2019-02-23T19:41:01.006Z,44.84
2019-02-23T19:43:29.410Z,44.49
2019-02-23T19:45:56.202Z,43.70
2019-02-23T19:48:23.063Z,42.70
2019-02-23T19:50:52.868Z,50.16
2019-02-23T19:53:19.653Z,49.93
2019-02-23T19:55:46.436Z,45.03
2019-02-23T19:58:13.599Z,42.75
2019-02-23T20:00:40.449Z,42.12
2019-02-23T20:03:07.222Z,42.27
2019-02-23T20:05:34.030Z,42.05
2019-02-23T20:08:00.811Z,41.86
2019-02-23T20:10:27.693Z,42.04
2019-02-23T20:12:54.536Z,42.27
2019-02-23T20:15:21.360Z,41.84
2019-02-23T20:17:48.150Z,41.86
2019-02-23T20:20:15.276Z,42.35
2019-02-23T20:22:42.391Z,42.97
2019-02-23T20:25:09.194Z,43.33
2019-02-23T20:27:37.818Z,43.32
2019-02-23T20:30:04.842Z,43.21
2019-02-23T20:32:31.685Z,43.27
2019-02-23T20:34:58.871Z,43.16
2019-02-23T20:37:25.925Z,42.82
2019-02-23T20:39:52.780Z,42.97
2019-02-23T20:42:19.615Z,42.88
2019-02-23T20:44:46.399Z,42.93
2019-02-23T20:47:13.212Z,42.66
2019-02-23T20:49:40.010Z,42.91
2019-02-23T20:52:07.437Z,42.86
2019-02-23T20:54:34.313Z,43.30
2019-02-23T20:57:05.278Z,43.67
2019-02-23T20:59:29.670Z,43.46
2019-02-23T21:01:56.464Z,43.61
2019-02-23T21:04:23.514Z,43.91
2019-02-23T21:06:52.091Z,44.36
2019-02-23T21:09:18.876Z,43.98
2019-02-23T21:11:45.647Z,44.31
2019-02-23T21:14:12.450Z,44.16
2019-02-23T21:16:39.163Z,44.00
2019-02-23T21:19:06.252Z,44.07
2019-02-23T21:21:33.049Z,44.36
2019-02-23T21:23:59.850Z,43.88
2019-02-23T21:26:28.443Z,44.26
2019-02-23T21:28:55.215Z,44.13
2019-02-23T21:31:23.366Z,44.52
2019-02-23T21:33:50.356Z,44.17
2019-02-23T21:36:17.113Z,44.18
2019-02-23T21:38:43.891Z,44.31
2019-02-23T21:41:10.669Z,44.91
2019-02-23T21:43:37.391Z,44.94
2019-02-23T21:46:05.049Z,44.44
2019-02-23T21:48:31.841Z,44.24
2019-02-23T21:50:58.576Z,44.13
2019-02-23T21:53:25.349Z,44.34
2019-02-23T21:55:52.418Z,44.19
2019-02-23T21:58:19.091Z,44.26
2019-02-23T22:00:45.841Z,44.28
2019-02-23T22:03:12.591Z,43.83
2019-02-23T22:05:39.374Z,43.78
2019-02-23T22:08:06.059Z,44.01
2019-02-23T22:10:32.761Z,43.69
2019-02-23T22:12:59.494Z,43.93
2019-02-23T22:15:26.242Z,43.81
2019-02-23T22:17:52.983Z,43.64
2019-02-23T22:20:19.943Z,43.63
2019-02-23T22:22:46.688Z,43.74
2019-02-23T22:25:13.423Z,43.83
2019-02-23T22:27:40.173Z,43.97
2019-02-23T22:30:06.906Z,44.08
2019-02-23T22:32:33.646Z,44.46
2019-02-23T22:35:00.633Z,44.35
2019-02-23T22:37:27.463Z,44.36
2019-02-23T22:39:54.171Z,44.85
2019-02-23T22:42:20.805Z,44.85
2019-02-23T22:44:47.578Z,45.31
2019-02-23T22:47:14.294Z,45.51
2019-02-23T22:49:40.908Z,45.78
2019-02-23T22:52:07.539Z,45.38
2019-02-23T22:54:34.173Z,44.90
2019-02-23T22:57:00.912Z,44.52
2019-02-23T22:59:27.561Z,44.49
2019-02-23T23:01:54.265Z,44.66
2019-02-23T23:04:20.947Z,44.71
2019-02-23T23:06:47.591Z,44.57
2019-02-23T23:09:17.616Z,44.57
2019-02-23T23:11:44.334Z,44.33
2019-02-23T23:14:11.912Z,44.54
2019-02-23T23:16:38.533Z,44.77
2019-02-23T23:19:05.216Z,45.12
2019-02-23T23:21:31.812Z,45.69
2019-02-23T23:23:58.470Z,46.81
2019-02-23T23:26:25.088Z,47.55
2019-02-23T23:28:51.696Z,48.35
2019-02-23T23:31:18.298Z,48.32
2019-02-23T23:33:45.012Z,48.58
2019-02-23T23:36:11.619Z,48.98
2019-02-23T23:38:38.310Z,49.20
2019-02-23T23:41:04.924Z,49.29
2019-02-23T23:43:31.549Z,49.66
2019-02-23T23:45:58.247Z,50.10
2019-02-23T23:48:24.857Z,50.32
2019-02-23T23:50:51.463Z,50.70
2019-02-23T23:53:18.055Z,51.05
2019-02-23T23:55:44.676Z,51.50
2019-02-23T23:58:11.311Z,51.34
